Citadel — PBOK — position and weather

sailwx.info

Track history (hours):
 
Tides and Currents Weather Stations Pressure Air Temp Water Temp Dewpoint Dewpoint Depression Visibility Wind Speed Wind Dir Waves Ship Positions

Citadel

Last reported at 2014-Nov-01 12:28 UTC. Time now 2014-Nov-01 13:27 UTC.
Position N 51°03' E 002°17'.

Length 111 m; draft 4.1 m.

Type: Cargo ship. MMSI: 245977000.

Date/timePositionNaut miles runAvg speedWind from/ knotsBaromVisibWave heightAir tempDewpointWater temp
2014-Nov-01 12:28N 51°03' E 002°17'0 0.0
2014-Nov-01 11:33N 51°03' E 002°17'0 0.0
2014-Nov-01 10:23N 51°03' E 002°17'0 0.1
2014-Nov-01 09:30N 51°03' E 002°17'2 2.4
2014-Nov-01 08:30N 51°03' E 002°21'1111.3
2014-Nov-01 07:30N 51°03' E 002°03'1111.9
2014-Nov-01 06:33N 51°01' E 001°46'7 7.0
2014-Nov-01 05:33N 50°58' E 001°36'8 7.6
2014-Nov-01 04:33N 50°52' E 001°28'7 7.0
2014-Nov-01 03:33N 50°45' E 001°24'8 7.6
2014-Nov-01 02:27N 50°38' E 001°18'8 8.6
2014-Nov-01 01:30N 50°33' E 001°09'73 9.1
2014-Oct-31 17:31N 49°38' W 000°07'1010.8
2014-Oct-31 16:33N 49°28' W 000°02'1212.2
2014-Oct-31 15:33N 49°26' E 000°16'1110.7
2014-Oct-31 14:31N 49°27' E 000°33'4 0.1
2014-Oct-29 13:31N 49°27' E 000°39'9 9.8
2014-Oct-29 12:33N 49°27' E 000°25'1312.7
2014-Oct-29 11:33N 49°26' E 000°05'1111.1
2014-Oct-29 10:32N 49°35' W 000°06'5811.2
2014-Oct-29 05:22N 50°31' E 000°17'1012.6
2014-Oct-29 04:33N 50°34' E 000°32'1111.6
2014-Oct-29 03:33N 50°40' E 000°47'1110.8
2014-Oct-29 02:33N 50°47' E 001°01'1010.1
2014-Oct-29 01:34N 50°53' E 001°13'1010.3
2014-Oct-29 00:33N 50°60' E 001°26'1110.6
2014-Oct-28 23:33N 51°06' E 001°39'1111.1
2014-Oct-28 22:33N 51°02' E 001°56'1413.1
2014-Oct-28 21:31N 51°04' E 002°18'2 2.2
2014-Oct-28 20:32N 51°03' E 002°21'2 2.2
2014-Oct-28 19:33N 51°03' E 002°17'0 0.0
2014-Oct-28 18:33N 51°03' E 002°17'0 0.0
2014-Oct-28 17:27N 51°03' E 002°17'0 0.0
2014-Oct-28 16:32N 51°03' E 002°17'0 0.0
2014-Oct-28 15:32N 51°03' E 002°17'0 0.0
2014-Oct-28 14:30N 51°03' E 002°17'0 0.0
2014-Oct-28 13:32N 51°03' E 002°17'0 0.0
2014-Oct-28 12:31N 51°03' E 002°17'0 0.0
2014-Oct-28 11:30N 51°03' E 002°17'0 0.0
2014-Oct-28 10:33N 51°03' E 002°17'0 0.0
2014-Oct-28 09:32N 51°03' E 002°17'0 0.0
2014-Oct-28 08:32N 51°03' E 002°17'0 0.0
2014-Oct-28 07:31N 51°03' E 002°17'0 0.0
2014-Oct-28 06:31N 51°03' E 002°17'0 0.0
2014-Oct-28 05:30N 51°03' E 002°17'0 0.0
2014-Oct-28 04:33N 51°03' E 002°17'0 0.0
2014-Oct-28 03:33N 51°03' E 002°17'0 0.0
2014-Oct-28 02:32N 51°03' E 002°17'0 0.0
2014-Oct-28 01:32N 51°03' E 002°17'0 0.0
2014-Oct-28 00:31N 51°03' E 002°17'0 0.0
2014-Oct-27 23:31N 51°03' E 002°17'0 0.0
2014-Oct-27 22:34N 51°03' E 002°17'0 0.0
2014-Oct-27 21:33N 51°03' E 002°17'0 0.0
2014-Oct-27 20:33N 51°03' E 002°17'0 0.0
2014-Oct-27 19:29N 51°03' E 002°17'0 0.0
2014-Oct-27 18:32N 51°03' E 002°17'0 0.0
2014-Oct-27 17:25N 51°03' E 002°17'0 0.0
2014-Oct-27 16:31N 51°03' E 002°17'0 0.0
2014-Oct-27 15:33N 51°03' E 002°17'0 0.0
2014-Oct-27 14:31N 51°03' E 002°17'0 0.0
2014-Oct-27 13:30N 51°03' E 002°17'0 0.0
2014-Oct-27 12:26N 51°03' E 002°17'0 0.0
2014-Oct-27 11:29N 51°03' E 002°17'0 0.0
2014-Oct-27 10:22N 51°03' E 002°17'0 0.0
2014-Oct-27 09:31N 51°03' E 002°17'0 0.0
2014-Oct-27 08:33N 51°03' E 002°17'0 0.0
2014-Oct-27 07:27N 51°03' E 002°17'0 0.0
2014-Oct-27 06:29N 51°03' E 002°17'0 0.0
2014-Oct-27 05:23N 51°03' E 002°17'0 0.0
2014-Oct-27 04:25N 51°03' E 002°17'0 0.0
2014-Oct-27 03:28N 51°03' E 002°17'0 0.0
2014-Oct-27 01:24N 51°03' E 002°17'0 0.0
2014-Oct-27 00:30N 51°03' E 002°17'0 0.0
2014-Oct-26 23:23N 51°03' E 002°17'0 0.0
2014-Oct-26 22:29N 51°03' E 002°17'0 0.0
2014-Oct-26 21:25N 51°03' E 002°17'0 0.0
2014-Oct-26 20:25N 51°03' E 002°17'0 0.0
2014-Oct-26 19:31N 51°03' E 002°17'0 0.0
2014-Oct-26 18:24N 51°03' E 002°17'0 0.0
2014-Oct-26 17:24N 51°03' E 002°17'0 0.0
2014-Oct-26 16:23N 51°03' E 002°17'0 0.0
2014-Oct-26 15:32N 51°03' E 002°17'0 0.0
2014-Oct-26 14:31N 51°03' E 002°17'0 0.0
2014-Oct-26 13:31N 51°03' E 002°17'0 0.0
2014-Oct-26 12:28N 51°03' E 002°17'0 0.0
2014-Oct-26 11:33N 51°03' E 002°17'0 0.0
2014-Oct-26 10:33N 51°03' E 002°17'0 0.0
2014-Oct-26 09:32N 51°03' E 002°17'0 0.0
2014-Oct-26 08:29N 51°03' E 002°17'0 0.0
2014-Oct-26 07:25N 51°03' E 002°17'0 0.0
2014-Oct-26 06:31N 51°03' E 002°17'0 0.0
2014-Oct-26 05:28N 51°03' E 002°17'0 0.0
2014-Oct-26 04:06N 51°03' E 002°17'0 0.0
2014-Oct-26 03:27N 51°03' E 002°17'0 0.0
2014-Oct-26 02:29N 51°03' E 002°17'0 0.0
2014-Oct-26 01:08N 51°03' E 002°17'0 0.0
2014-Oct-26 00:22N 51°03' E 002°17'0 0.0
2014-Oct-25 23:33N 51°03' E 002°17'0 0.0
2014-Oct-25 22:34N 51°03' E 002°17'0 0.0
2014-Oct-25 21:32N 51°03' E 002°17'0 0.0
2014-Oct-25 20:32N 51°03' E 002°17'0 0.0
2014-Oct-25 19:32N 51°03' E 002°17'0 0.0
2014-Oct-25 18:33N 51°03' E 002°17'0 0.0
2014-Oct-25 17:31N 51°03' E 002°17'0 0.0
2014-Oct-25 16:33N 51°03' E 002°17'2 2.4
2014-Oct-25 15:33N 51°03' E 002°21'1312.1
2014-Oct-25 14:30N 51°02' E 002°01'6 5.7
2014-Oct-25 13:28N 51°04' E 001°52'0 0.0
2014-Oct-25 12:33N 51°04' E 001°52'0 0.0
2014-Oct-25 11:33N 51°04' E 001°52'0 0.0
2014-Oct-25 10:33N 51°04' E 001°52'0 0.1
2014-Oct-25 09:32N 51°04' E 001°52'0 0.0
2014-Oct-25 08:32N 51°04' E 001°52'0 0.0
2014-Oct-25 07:28N 51°04' E 001°52'0 0.0
2014-Oct-25 06:31N 51°04' E 001°52'0 0.0
2014-Oct-25 05:27N 51°04' E 001°52'0 0.1
2014-Oct-25 04:30N 51°04' E 001°52'0 0.0
2014-Oct-25 03:33N 51°04' E 001°52'0 0.0
2014-Oct-25 02:32N 51°04' E 001°52'0 0.0
2014-Oct-25 01:32N 51°04' E 001°52'0 0.0
2014-Oct-25 00:28N 51°04' E 001°52'0 0.1
2014-Oct-24 23:31N 51°04' E 001°52'0 0.0
2014-Oct-24 22:33N 51°04' E 001°52'0 0.0
2014-Oct-24 21:33N 51°04' E 001°52'4 4.0
2014-Oct-24 20:32N 51°02' E 001°46'1010.2
2014-Oct-24 19:33N 50°56' E 001°33'317 9.6
2014-Oct-23 10:22N 48°02' W 005°15'911.5
2014-Oct-23 09:33N 47°58' W 005°03'1111.3
2014-Oct-23 08:33N 47°53' W 004°47'  
Track history (hours):
 
Tides and Currents Weather Stations Pressure Air Temp Water Temp Dewpoint Dewpoint Depression Visibility Wind Speed Wind Dir Waves Ship Positions

Citadel

Last reported at 2014-Nov-01 12:28 UTC. Time now 2014-Nov-01 13:27 UTC.
Position N 51°03' E 002°17'.

Length 111 m; draft 4.1 m.

Type: Cargo ship. MMSI: 245977000.

Date/timePositionNaut miles runAvg speedWind from/ knotsBaromVisibWave heightAir tempDewpointWater temp
2014-Nov-01 12:28N 51°03' E 002°17'0 0.0
2014-Nov-01 11:33N 51°03' E 002°17'0 0.0
2014-Nov-01 10:23N 51°03' E 002°17'0 0.1
2014-Nov-01 09:30N 51°03' E 002°17'2 2.4
2014-Nov-01 08:30N 51°03' E 002°21'1111.3
2014-Nov-01 07:30N 51°03' E 002°03'1111.9
2014-Nov-01 06:33N 51°01' E 001°46'7 7.0
2014-Nov-01 05:33N 50°58' E 001°36'8 7.6
2014-Nov-01 04:33N 50°52' E 001°28'7 7.0
2014-Nov-01 03:33N 50°45' E 001°24'8 7.6
2014-Nov-01 02:27N 50°38' E 001°18'8 8.6
2014-Nov-01 01:30N 50°33' E 001°09'73 9.1
2014-Oct-31 17:31N 49°38' W 000°07'1010.8
2014-Oct-31 16:33N 49°28' W 000°02'1212.2
2014-Oct-31 15:33N 49°26' E 000°16'1110.7
2014-Oct-31 14:31N 49°27' E 000°33'4 0.1
2014-Oct-29 13:31N 49°27' E 000°39'9 9.8
2014-Oct-29 12:33N 49°27' E 000°25'1312.7
2014-Oct-29 11:33N 49°26' E 000°05'1111.1
2014-Oct-29 10:32N 49°35' W 000°06'5811.2
2014-Oct-29 05:22N 50°31' E 000°17'1012.6
2014-Oct-29 04:33N 50°34' E 000°32'1111.6
2014-Oct-29 03:33N 50°40' E 000°47'1110.8
2014-Oct-29 02:33N 50°47' E 001°01'1010.1
2014-Oct-29 01:34N 50°53' E 001°13'1010.3
2014-Oct-29 00:33N 50°60' E 001°26'1110.6
2014-Oct-28 23:33N 51°06' E 001°39'1111.1
2014-Oct-28 22:33N 51°02' E 001°56'1413.1
2014-Oct-28 21:31N 51°04' E 002°18'2 2.2
2014-Oct-28 20:32N 51°03' E 002°21'2 2.2
2014-Oct-28 19:33N 51°03' E 002°17'0 0.0
2014-Oct-28 18:33N 51°03' E 002°17'0 0.0
2014-Oct-28 17:27N 51°03' E 002°17'0 0.0
2014-Oct-28 16:32N 51°03' E 002°17'0 0.0
2014-Oct-28 15:32N 51°03' E 002°17'0 0.0
2014-Oct-28 14:30N 51°03' E 002°17'0 0.0
2014-Oct-28 13:32N 51°03' E 002°17'0 0.0
2014-Oct-28 12:31N 51°03' E 002°17'0 0.0
2014-Oct-28 11:30N 51°03' E 002°17'0 0.0
2014-Oct-28 10:33N 51°03' E 002°17'0 0.0
2014-Oct-28 09:32N 51°03' E 002°17'0 0.0
2014-Oct-28 08:32N 51°03' E 002°17'0 0.0
2014-Oct-28 07:31N 51°03' E 002°17'0 0.0
2014-Oct-28 06:31N 51°03' E 002°17'0 0.0
2014-Oct-28 05:30N 51°03' E 002°17'0 0.0
2014-Oct-28 04:33N 51°03' E 002°17'0 0.0
2014-Oct-28 03:33N 51°03' E 002°17'0 0.0
2014-Oct-28 02:32N 51°03' E 002°17'0 0.0
2014-Oct-28 01:32N 51°03' E 002°17'0 0.0
2014-Oct-28 00:31N 51°03' E 002°17'0 0.0
2014-Oct-27 23:31N 51°03' E 002°17'0 0.0
2014-Oct-27 22:34N 51°03' E 002°17'0 0.0
2014-Oct-27 21:33N 51°03' E 002°17'0 0.0
2014-Oct-27 20:33N 51°03' E 002°17'0 0.0
2014-Oct-27 19:29N 51°03' E 002°17'0 0.0
2014-Oct-27 18:32N 51°03' E 002°17'0 0.0
2014-Oct-27 17:25N 51°03' E 002°17'0 0.0
2014-Oct-27 16:31N 51°03' E 002°17'0 0.0
2014-Oct-27 15:33N 51°03' E 002°17'0 0.0
2014-Oct-27 14:31N 51°03' E 002°17'0 0.0
2014-Oct-27 13:30N 51°03' E 002°17'0 0.0
2014-Oct-27 12:26N 51°03' E 002°17'0 0.0
2014-Oct-27 11:29N 51°03' E 002°17'0 0.0
2014-Oct-27 10:22N 51°03' E 002°17'0 0.0
2014-Oct-27 09:31N 51°03' E 002°17'0 0.0
2014-Oct-27 08:33N 51°03' E 002°17'0 0.0
2014-Oct-27 07:27N 51°03' E 002°17'0 0.0
2014-Oct-27 06:29N 51°03' E 002°17'0 0.0
2014-Oct-27 05:23N 51°03' E 002°17'0 0.0
2014-Oct-27 04:25N 51°03' E 002°17'0 0.0
2014-Oct-27 03:28N 51°03' E 002°17'0 0.0
2014-Oct-27 01:24N 51°03' E 002°17'0 0.0
2014-Oct-27 00:30N 51°03' E 002°17'0 0.0
2014-Oct-26 23:23N 51°03' E 002°17'0 0.0
2014-Oct-26 22:29N 51°03' E 002°17'0 0.0
2014-Oct-26 21:25N 51°03' E 002°17'0 0.0
2014-Oct-26 20:25N 51°03' E 002°17'0 0.0
2014-Oct-26 19:31N 51°03' E 002°17'0 0.0
2014-Oct-26 18:24N 51°03' E 002°17'0 0.0
2014-Oct-26 17:24N 51°03' E 002°17'0 0.0
2014-Oct-26 16:23N 51°03' E 002°17'0 0.0
2014-Oct-26 15:32N 51°03' E 002°17'0 0.0
2014-Oct-26 14:31N 51°03' E 002°17'0 0.0
2014-Oct-26 13:31N 51°03' E 002°17'0 0.0
2014-Oct-26 12:28N 51°03' E 002°17'0 0.0
2014-Oct-26 11:33N 51°03' E 002°17'0 0.0
2014-Oct-26 10:33N 51°03' E 002°17'0 0.0
2014-Oct-26 09:32N 51°03' E 002°17'0 0.0
2014-Oct-26 08:29N 51°03' E 002°17'0 0.0
2014-Oct-26 07:25N 51°03' E 002°17'0 0.0
2014-Oct-26 06:31N 51°03' E 002°17'0 0.0
2014-Oct-26 05:28N 51°03' E 002°17'0 0.0
2014-Oct-26 04:06N 51°03' E 002°17'0 0.0
2014-Oct-26 03:27N 51°03' E 002°17'0 0.0
2014-Oct-26 02:29N 51°03' E 002°17'0 0.0
2014-Oct-26 01:08N 51°03' E 002°17'0 0.0
2014-Oct-26 00:22N 51°03' E 002°17'0 0.0
2014-Oct-25 23:33N 51°03' E 002°17'0 0.0
2014-Oct-25 22:34N 51°03' E 002°17'0 0.0
2014-Oct-25 21:32N 51°03' E 002°17'0 0.0
2014-Oct-25 20:32N 51°03' E 002°17'0 0.0
2014-Oct-25 19:32N 51°03' E 002°17'0 0.0
2014-Oct-25 18:33N 51°03' E 002°17'0 0.0
2014-Oct-25 17:31N 51°03' E 002°17'0 0.0
2014-Oct-25 16:33N 51°03' E 002°17'2 2.4
2014-Oct-25 15:33N 51°03' E 002°21'1312.1
2014-Oct-25 14:30N 51°02' E 002°01'6 5.7
2014-Oct-25 13:28N 51°04' E 001°52'0 0.0
2014-Oct-25 12:33N 51°04' E 001°52'0 0.0
2014-Oct-25 11:33N 51°04' E 001°52'0 0.0
2014-Oct-25 10:33N 51°04' E 001°52'0 0.1
2014-Oct-25 09:32N 51°04' E 001°52'0 0.0
2014-Oct-25 08:32N 51°04' E 001°52'0 0.0
2014-Oct-25 07:28N 51°04' E 001°52'0 0.0
2014-Oct-25 06:31N 51°04' E 001°52'0 0.0
2014-Oct-25 05:27N 51°04' E 001°52'0 0.1
2014-Oct-25 04:30N 51°04' E 001°52'0 0.0
2014-Oct-25 03:33N 51°04' E 001°52'0 0.0
2014-Oct-25 02:32N 51°04' E 001°52'0 0.0
2014-Oct-25 01:32N 51°04' E 001°52'0 0.0
2014-Oct-25 00:28N 51°04' E 001°52'0 0.1
2014-Oct-24 23:31N 51°04' E 001°52'0 0.0
2014-Oct-24 22:33N 51°04' E 001°52'0 0.0
2014-Oct-24 21:33N 51°04' E 001°52'4 4.0
2014-Oct-24 20:32N 51°02' E 001°46'1010.2
2014-Oct-24 19:33N 50°56' E 001°33'317 9.6
2014-Oct-23 10:22N 48°02' W 005°15'911.5
2014-Oct-23 09:33N 47°58' W 005°03'1111.3
2014-Oct-23 08:33N 47°53' W 004°47'  

Dump ship's entire track history